Time;durP1;ratioP1;P1;durP2;ratioP2;P2;SDS_P1;SDS_P2;PMS_P1;PMS_P2;Temp;Humidity;BMP_temperature;BMP_pressure;BME280_temperature;BME280_humidity;BME280_pressure;Samples;Min_cycle;Max_cycle;Signal;HPM_P1;HPM_P2
2023/12/13 00:01:39;;;;;;;;;;;;;;;;;;5061040;28;19925;-82
2023/12/13 00:04:05;;;;;;;;;;;;;;;;;;5061778;28;19932;-81
2023/12/13 00:06:32;;;;;;;;;;;;;;;;;;5063281;28;19971;-82
2023/12/13 00:08:58;;;;;;;;;;;;;;;;;;5048397;28;19928;-81
2023/12/13 00:11:24;;;;;;;;;;;;;;;;;;5064973;28;20397;-81
2023/12/13 00:13:51;;;;;;;;;;;;;;;;;;5064265;28;20424;-81
2023/12/13 00:16:19;;;;;;;;;;;;;;;;;;5066334;28;19926;-81
2023/12/13 00:18:47;;;;;;;;;;;;;;;;;;5070289;28;19935;-82
2023/12/13 00:21:15;;;;;;;;;;;;;;;;;;5060150;28;20058;-82
2023/12/13 00:23:46;;;;;;;;;;;;;;;;;;5069649;28;19929;-82
2023/12/13 00:26:12;;;;;;;;;;;;;;;;;;5070149;28;19928;-81
2023/12/13 00:28:38;;;;;;;;;;;;;;;;;;5063296;28;19924;-81
2023/12/13 00:31:05;;;;;;;;;;;;;;;;;;5050186;28;19929;-81
2023/12/13 00:33:33;;;;;;;;;;;;;;;;;;5057700;28;19928;-81
2023/12/13 00:35:59;;;;;;;;;;;;;;;;;;5068973;28;19925;-82
2023/12/13 00:38:26;;;;;;;;;;;;;;;;;;5052986;28;20374;-81
2023/12/13 00:40:52;;;;;;;;;;;;;;;;;;5058379;28;19967;-81
2023/12/13 00:43:18;;;;;;;;;;;;;;;;;;5042843;28;20038;-81
2023/12/13 00:45:45;;;;;;;;;;;;;;;;;;5068694;28;19925;-81
2023/12/13 00:48:11;;;;;;;;;;;;;;;;;;5063164;28;19947;-82
2023/12/13 00:50:37;;;;;;;;;;;;;;;;;;5069497;28;19931;-82
2023/12/13 00:53:04;;;;;;;;;;;;;;;;;;5064511;28;19925;-82
2023/12/13 00:55:30;;;;;;;;;;;;;;;;;;5063826;28;20302;-83
2023/12/13 00:57:57;;;;;;;;;;;;;;;;;;5063249;28;19989;-82
2023/12/13 01:00:24;;;;;;;;;;;;;;;;;;5062169;28;20011;-82
2023/12/13 01:02:50;;;;;;;;;;;;;;;;;;5069114;28;19929;-82
2023/12/13 01:05:16;;;;;;;;;;;;;;;;;;5061182;28;19925;-83
2023/12/13 01:07:43;;;;;;;;;;;;;;;;;;5062685;28;20047;-84
2023/12/13 01:10:10;;;;;;;;;;;;;;;;;;5067706;28;19971;-83
2023/12/13 01:12:36;;;;;;;;;;;;;;;;;;5059392;28;19925;-81
2023/12/13 01:15:03;;;;;;;;;;;;;;;;;;5064335;28;19924;-82
2023/12/13 01:17:32;;;;;;;;;;;;;;;;;;5065529;28;19935;-82
2023/12/13 01:19:59;;;;;;;;;;;;;;;;;;5061905;28;20293;-82
2023/12/13 01:22:27;;;;;;;;;;;;;;;;;;5056971;28;19925;-81
2023/12/13 01:24:54;;;;;;;;;;;;;;;;;;5065217;28;20391;-83
2023/12/13 01:27:20;;;;;;;;;;;;;;;;;;5067796;28;19978;-81
2023/12/13 01:29:47;;;;;;;;;;;;;;;;;;5057976;28;19929;-82
2023/12/13 01:32:13;;;;;;;;;;;;;;;;;;5067057;28;19925;-81
2023/12/13 01:34:40;;;;;;;;;;;;;;;;;;5065531;28;20345;-83
2023/12/13 01:37:06;;;;;;;;;;;;;;;;;;5064476;28;20381;-82
2023/12/13 01:39:32;;;;;;;;;;;;;;;;;;5070330;28;19975;-82
2023/12/13 01:41:59;;;;;;;;;;;;;;;;;;5066649;28;19935;-83
2023/12/13 01:44:25;;;;;;;;;;;;;;;;;;5062565;28;20111;-82
2023/12/13 01:46:51;;;;;;;;;;;;;;;;;;5065982;28;19937;-82
2023/12/13 01:49:18;;;;;;;;;;;;;;;;;;5059745;28;19964;-82
2023/12/13 01:51:45;;;;;;;;;;;;;;;;;;5066077;28;19925;-84
2023/12/13 01:54:11;;;;;;;;;;;;;;;;;;5063781;28;19931;-82
2023/12/13 01:56:37;;;;;;;;;;;;;;;;;;5069498;28;20356;-81
2023/12/13 01:59:04;;;;;;;;;;;;;;;;;;5063495;28;20388;-82
2023/12/13 02:01:30;;;;;;;;;;;;;;;;;;5064909;28;19947;-82
2023/12/13 02:03:56;;;;;;;;;;;;;;;;;;5062804;28;19952;-82
2023/12/13 02:06:23;;;;;;;;;;;;;;;;;;5071657;28;19924;-81
2023/12/13 02:08:49;;;;;;;;;;;;;;;;;;5062618;28;19925;-81
2023/12/13 02:11:16;;;;;;;;;;;;;;;;;;5068162;28;19925;-81
2023/12/13 02:13:42;;;;;;;;;;;;;;;;;;5066702;28;19935;-82
2023/12/13 02:16:10;;;;;;;;;;;;;;;;;;5068133;28;19925;-82
2023/12/13 02:18:36;;;;;;;;;;;;;;;;;;5066940;28;20360;-82
2023/12/13 02:21:03;;;;;;;;;;;;;;;;;;5073281;28;20012;-82
2023/12/13 02:23:29;;;;;;;;;;;;;;;;;;5067025;28;19925;-82
2023/12/13 02:25:56;;;;;;;;;;;;;;;;;;5066550;28;19935;-82
2023/12/13 02:28:22;;;;;;;;;;;;;;;;;;5062438;28;20039;-82
2023/12/13 02:30:49;;;;;;;;;;;;;;;;;;5065526;28;19936;-82
2023/12/13 02:33:15;;;;;;;;;;;;;;;;;;5071834;28;19963;-82
2023/12/13 02:35:41;;;;;;;;;;;;;;;;;;5064346;28;20434;-82
2023/12/13 02:38:08;;;;;;;;;;;;;;;;;;5063306;28;20421;-82
2023/12/13 02:40:35;;;;;;;;;;;;;;;;;;5071547;28;20420;-82
2023/12/13 02:43:01;;;;;;;;;;;;;;;;;;5060240;28;19935;-83
2023/12/13 02:45:28;;;;;;;;;;;;;;;;;;5059646;28;19924;-83
2023/12/13 02:47:56;;;;;;;;;;;;;;;;;;5064408;28;19925;-83
2023/12/13 02:50:22;;;;;;;;;;;;;;;;;;5068162;28;20397;-83
2023/12/13 02:52:49;;;;;;;;;;;;;;;;;;5066400;28;20381;-83
2023/12/13 02:55:15;;;;;;;;;;;;;;;;;;5070441;28;20384;-83
2023/12/13 02:57:41;;;;;;;;;;;;;;;;;;5054794;28;19982;-80
2023/12/13 03:00:08;;;;;;;;;;;;;;;;;;5062507;28;19931;-80
2023/12/13 03:02:34;;;;;;;;;;;;;;;;;;5072851;28;19929;-79
2023/12/13 03:05:01;;;;;;;;;;;;;;;;;;5046925;28;19924;-79
2023/12/13 03:07:27;;;;;;;;;;;;;;;;;;5072450;28;19960;-81
2023/12/13 03:09:54;;;;;;;;;;;;;;;;;;5063181;28;19986;-79
2023/12/13 03:12:20;;;;;;;;;;;;;;;;;;5064816;28;20377;-79
2023/12/13 03:14:46;;;;;;;;;;;;;;;;;;5061164;28;19928;-80
2023/12/13 03:17:13;;;;;;;;;;;;;;;;;;5055823;28;19928;-80
2023/12/13 03:19:39;;;;;;;;;;;;;;;;;;5064880;28;20356;-81
2023/12/13 03:22:05;;;;;;;;;;;;;;;;;;5065472;28;19928;-80
2023/12/13 03:24:32;;;;;;;;;;;;;;;;;;5061239;28;19946;-80
2023/12/13 03:26:58;;;;;;;;;;;;;;;;;;5071440;28;19982;-80
2023/12/13 03:29:25;;;;;;;;;;;;;;;;;;5069624;28;20018;-79
2023/12/13 03:31:51;;;;;;;;;;;;;;;;;;5062345;28;19972;-80
2023/12/13 03:34:17;;;;;;;;;;;;;;;;;;5065762;28;19948;-79
2023/12/13 03:36:44;;;;;;;;;;;;;;;;;;5050231;28;19925;-80
2023/12/13 03:39:10;;;;;;;;;;;;;;;;;;5048223;28;19928;-80
2023/12/13 03:41:37;;;;;;;;;;;;;;;;;;5062671;28;20370;-80
2023/12/13 03:44:04;;;;;;;;;;;;;;;;;;5071054;28;19932;-80
2023/12/13 03:46:30;;;;;;;;;;;;;;;;;;5068362;28;19924;-80
2023/12/13 03:48:57;;;;;;;;;;;;;;;;;;5059363;28;19925;-81
2023/12/13 03:51:23;;;;;;;;;;;;;;;;;;5069674;28;19955;-79
2023/12/13 03:53:49;;;;;;;;;;;;;;;;;;5069019;28;20444;-80
2023/12/13 03:56:16;;;;;;;;;;;;;;;;;;5070627;28;20302;-80
2023/12/13 03:58:42;;;;;;;;;;;;;;;;;;5068717;28;19929;-80
2023/12/13 04:01:09;;;;;;;;;;;;;;;;;;5069457;28;20313;-80
2023/12/13 04:03:35;;;;;;;;;;;;;;;;;;5059714;28;19928;-80
2023/12/13 04:06:03;;;;;;;;;;;;;;;;;;5064729;28;20019;-80
2023/12/13 04:08:29;;;;;;;;;;;;;;;;;;5069481;28;19929;-79
2023/12/13 04:10:56;;;;;;;;;;;;;;;;;;5053878;28;20010;-80
2023/12/13 04:13:22;;;;;;;;;;;;;;;;;;5052180;28;20327;-80
2023/12/13 04:15:48;;;;;;;;;;;;;;;;;;5065639;28;20345;-80
2023/12/13 04:18:15;;;;;;;;;;;;;;;;;;5062797;28;19959;-80
2023/12/13 04:20:41;;;;;;;;;;;;;;;;;;5064317;28;19925;-80
2023/12/13 04:23:08;;;;;;;;;;;;;;;;;;5062976;28;19932;-81
2023/12/13 04:25:34;;;;;;;;;;;;;;;;;;5063139;28;19994;-80
2023/12/13 04:28:01;;;;;;;;;;;;;;;;;;5062091;28;19928;-80
2023/12/13 04:30:27;;;;;;;;;;;;;;;;;;5054411;28;19974;-81
2023/12/13 04:32:55;;;;;;;;;;;;;;;;;;5051735;28;19983;-80
2023/12/13 04:35:21;;;;;;;;;;;;;;;;;;5066251;28;20337;-80
2023/12/13 04:37:48;;;;;;;;;;;;;;;;;;5065480;28;20384;-80
2023/12/13 04:40:15;;;;;;;;;;;;;;;;;;5063865;28;19925;-81
2023/12/13 04:42:42;;;;;;;;;;;;;;;;;;5066100;28;19931;-80
2023/12/13 04:45:09;;;;;;;;;;;;;;;;;;5070826;28;19998;-80
2023/12/13 04:47:35;;;;;;;;;;;;;;;;;;5061387;28;19956;-80
2023/12/13 04:50:05;;;;;;;;;;;;;;;;;;5063937;28;19947;-80
2023/12/13 04:52:33;;;;;;;;;;;;;;;;;;5061504;28;20031;-80
2023/12/13 04:55:00;;;;;;;;;;;;;;;;;;5064491;28;20041;-80
2023/12/13 04:57:26;;;;;;;;;;;;;;;;;;5068265;28;20335;-80
2023/12/13 04:59:52;;;;;;;;;;;;;;;;;;5052614;28;19929;-81
2023/12/13 05:02:19;;;;;;;;;;;;;;;;;;5061307;28;19963;-79
2023/12/13 05:04:46;;;;;;;;;;;;;;;;;;5067966;28;20282;-80
2023/12/13 05:07:12;;;;;;;;;;;;;;;;;;5068132;28;19925;-80
2023/12/13 05:09:39;;;;;;;;;;;;;;;;;;5063509;28;19932;-80
2023/12/13 05:12:05;;;;;;;;;;;;;;;;;;5069032;28;19931;-80
2023/12/13 05:14:32;;;;;;;;;;;;;;;;;;5064076;28;20035;-80
2023/12/13 05:16:58;;;;;;;;;;;;;;;;;;5068180;28;20015;-80
2023/12/13 05:19:24;;;;;;;;;;;;;;;;;;5059348;28;19929;-80
2023/12/13 05:21:51;;;;;;;;;;;;;;;;;;5064317;28;20266;-80
2023/12/13 05:24:17;;;;;;;;;;;;;;;;;;5061989;28;19925;-81
2023/12/13 05:26:44;;;;;;;;;;;;;;;;;;5062270;28;20297;-81
2023/12/13 05:29:10;;;;;;;;;;;;;;;;;;5050397;28;19964;-80
2023/12/13 05:31:36;;;;;;;;;;;;;;;;;;5068924;28;19925;-80
2023/12/13 05:34:03;;;;;;;;;;;;;;;;;;5061390;28;19924;-81
2023/12/13 05:36:30;;;;;;;;;;;;;;;;;;5066489;28;19978;-80
2023/12/13 05:38:56;;;;;;;;;;;;;;;;;;5070409;28;19947;-80
2023/12/13 05:41:23;;;;;;;;;;;;;;;;;;5063683;28;20293;-82
2023/12/13 05:43:49;;;;;;;;;;;;;;;;;;5048940;28;20309;-82
2023/12/13 05:46:16;;;;;;;;;;;;;;;;;;5051683;28;19961;-82
2023/12/13 05:48:42;;;;;;;;;;;;;;;;;;5060076;28;19925;-82
2023/12/13 05:51:09;;;;;;;;;;;;;;;;;;5069409;28;19925;-82
2023/12/13 05:53:35;;;;;;;;;;;;;;;;;;5050316;28;20014;-81
2023/12/13 05:56:02;;;;;;;;;;;;;;;;;;5060151;28;19928;-82
2023/12/13 05:58:29;;;;;;;;;;;;;;;;;;5050838;28;20305;-81
2023/12/13 06:00:57;;;;;;;;;;;;;;;;;;5055864;28;19924;-82
2023/12/13 06:03:25;;;;;;;;;;;;;;;;;;5056729;28;19932;-80
2023/12/13 06:05:51;;;;;;;;;;;;;;;;;;5060430;28;20006;-82
2023/12/13 06:08:18;;;;;;;;;;;;;;;;;;5067850;28;19932;-81
2023/12/13 06:10:44;;;;;;;;;;;;;;;;;;5051359;28;19936;-81
2023/12/13 06:13:10;;;;;;;;;;;;;;;;;;5055808;28;19960;-82
2023/12/13 06:15:38;;;;;;;;;;;;;;;;;;5066689;28;19925;-82
2023/12/13 06:18:04;;;;;;;;;;;;;;;;;;5071610;28;19985;-82
2023/12/13 06:20:31;;;;;;;;;;;;;;;;;;5069628;28;19928;-82
2023/12/13 06:22:57;;;;;;;;;;;;;;;;;;5055187;28;19925;-82
2023/12/13 06:25:24;;;;;;;;;;;;;;;;;;5063488;28;20408;-82
2023/12/13 06:27:51;;;;;;;;;;;;;;;;;;5058590;28;19959;-81
2023/12/13 06:30:17;;;;;;;;;;;;;;;;;;5071603;28;19924;-83
2023/12/13 06:32:44;;;;;;;;;;;;;;;;;;5071830;28;19932;-81
2023/12/13 06:35:12;;;;;;;;;;;;;;;;;;5068680;28;19971;-82
2023/12/13 06:37:39;;;;;;;;;;;;;;;;;;5065607;28;19925;-81
2023/12/13 06:40:05;;;;;;;;;;;;;;;;;;5053871;28;19929;-82
2023/12/13 06:42:32;;;;;;;;;;;;;;;;;;5061830;28;20011;-81
2023/12/13 06:44:58;;;;;;;;;;;;;;;;;;5056822;28;20395;-82
2023/12/13 06:47:24;;;;;;;;;;;;;;;;;;5056818;28;20402;-81
2023/12/13 06:49:54;;;;;;;;;;;;;;;;;;5061687;28;19928;-81
2023/12/13 06:52:20;;;;;;;;;;;;;;;;;;5065946;28;20014;-81
2023/12/13 06:54:47;;;;;;;;;;;;;;;;;;5068146;28;20449;-81
2023/12/13 06:57:13;;;;;;;;;;;;;;;;;;5068904;28;19932;-81
2023/12/13 06:59:40;;;;;;;;;;;;;;;;;;5062862;28;19936;-81
2023/12/13 07:02:06;;;;;;;;;;;;;;;;;;5066404;28;19978;-81
2023/12/13 07:04:35;;;;;;;;;;;;;;;;;;5068635;28;19925;-82
2023/12/13 07:07:01;;;;;;;;;;;;;;;;;;5066634;28;19925;-82
2023/12/13 07:09:30;;;;;;;;;;;;;;;;;;5054931;28;20396;-82
2023/12/13 07:11:56;;;;;;;;;;;;;;;;;;5062436;28;20027;-81
2023/12/13 07:14:23;;;;;;;;;;;;;;;;;;5065759;28;20449;-83
2023/12/13 07:16:49;;;;;;;;;;;;;;;;;;5061832;28;19956;-82
2023/12/13 07:19:16;;;;;;;;;;;;;;;;;;5062328;28;19963;-81
2023/12/13 07:21:43;;;;;;;;;;;;;;;;;;5070588;28;19987;-81
2023/12/13 07:24:09;;;;;;;;;;;;;;;;;;5061664;28;19967;-82
2023/12/13 07:26:36;;;;;;;;;;;;;;;;;;5069225;28;20015;-82
2023/12/13 07:29:02;;;;;;;;;;;;;;;;;;5059423;28;20310;-82
2023/12/13 07:31:29;;;;;;;;;;;;;;;;;;5064226;28;20316;-83
2023/12/13 07:33:56;;;;;;;;;;;;;;;;;;5068082;28;19925;-82
2023/12/13 07:36:25;;;;;;;;;;;;;;;;;;5062413;28;19986;-83
2023/12/13 07:38:51;;;;;;;;;;;;;;;;;;5069824;28;19947;-83
2023/12/13 07:41:18;;;;;;;;;;;;;;;;;;5066249;28;19947;-83
2023/12/13 07:43:44;;;;;;;;;;;;;;;;;;5071907;28;19933;-83
2023/12/13 07:46:11;;;;;;;;;;;;;;;;;;5070168;28;19928;-83
2023/12/13 07:48:37;;;;;;;;;;;;;;;;;;5069077;28;20464;-84
2023/12/13 07:51:04;;;;;;;;;;;;;;;;;;5067712;28;20381;-83
2023/12/13 07:53:30;;;;;;;;;;;;;;;;;;5061583;28;19987;-83
2023/12/13 07:55:57;;;;;;;;;;;;;;;;;;5053636;28;20032;-83
2023/12/13 07:58:23;;;;;;;;;;;;;;;;;;5044388;28;20381;-83
2023/12/13 08:00:50;;;;;;;;;;;;;;;;;;5060050;28;19929;-83
2023/12/13 08:03:16;;;;;;;;;;;;;;;;;;5063060;28;19935;-83
2023/12/13 08:05:43;;;;;;;;;;;;;;;;;;5066248;28;19924;-84
2023/12/13 08:08:09;;;;;;;;;;;;;;;;;;5059902;28;20031;-83
2023/12/13 08:10:36;;;;;;;;;;;;;;;;;;5062920;28;19947;-84
2023/12/13 08:13:03;;;;;;;;;;;;;;;;;;5061039;28;19925;-83
2023/12/13 08:15:29;;;;;;;;;;;;;;;;;;5061432;28;19924;-84
2023/12/13 08:17:56;;;;;;;;;;;;;;;;;;5065197;28;19931;-83
2023/12/13 08:20:23;;;;;;;;;;;;;;;;;;5064650;28;19925;-83
2023/12/13 08:22:49;;;;;;;;;;;;;;;;;;5062501;28;20332;-82
2023/12/13 08:25:16;;;;;;;;;;;;;;;;;;5062272;28;19928;-82
2023/12/13 08:27:43;;;;;;;;;;;;;;;;;;5064315;28;19924;-82
2023/12/13 08:30:09;;;;;;;;;;;;;;;;;;5052241;28;19924;-82
2023/12/13 08:32:36;;;;;;;;;;;;;;;;;;5069099;28;19924;-83
2023/12/13 08:35:03;;;;;;;;;;;;;;;;;;5053546;28;20347;-83
2023/12/13 08:37:29;;;;;;;;;;;;;;;;;;5063746;28;19928;-83
2023/12/13 08:39:56;;;;;;;;;;;;;;;;;;5056247;28;19924;-82
2023/12/13 08:42:23;;;;;;;;;;;;;;;;;;5069781;28;19925;-82
2023/12/13 08:44:51;;;;;;;;;;;;;;;;;;5063569;28;19924;-81
2023/12/13 08:47:19;;;;;;;;;;;;;;;;;;5064235;28;19924;-83
2023/12/13 08:49:46;;;;;;;;;;;;;;;;;;5065377;28;20305;-82
2023/12/13 08:52:12;;;;;;;;;;;;;;;;;;5070304;28;19972;-82
2023/12/13 08:54:39;;;;;;;;;;;;;;;;;;5053687;28;19940;-82
2023/12/13 08:57:05;;;;;;;;;;;;;;;;;;5058624;28;19972;-82
2023/12/13 08:59:32;;;;;;;;;;;;;;;;;;5060832;28;20007;-83
2023/12/13 09:01:58;;;;;;;;;;;;;;;;;;5072216;28;20015;-83
2023/12/13 09:04:24;;;;;;;;;;;;;;;;;;5064313;28;19935;-82
2023/12/13 09:06:51;;;;;;;;;;;;;;;;;;5067064;28;20027;-82
2023/12/13 09:09:17;;;;;;;;;;;;;;;;;;5050027;28;20012;-83
2023/12/13 09:11:46;;;;;;;;;;;;;;;;;;5064253;28;19928;-82
2023/12/13 09:14:12;;;;;;;;;;;;;;;;;;5053055;28;19960;-82
2023/12/13 09:16:39;;;;;;;;;;;;;;;;;;5053920;28;19931;-82
2023/12/13 09:19:06;;;;;;;;;;;;;;;;;;5062088;28;20015;-80
2023/12/13 09:21:32;;;;;;;;;;;;;;;;;;5059615;28;20023;-81
2023/12/13 09:23:59;;;;;;;;;;;;;;;;;;5066660;28;19924;-82
2023/12/13 09:26:26;;;;;;;;;;;;;;;;;;5062042;28;20020;-82
2023/12/13 09:28:55;;;;;;;;;;;;;;;;;;5069013;28;20399;-82
2023/12/13 09:31:23;;;;;;;;;;;;;;;;;;5052955;28;19937;-82
2023/12/13 09:33:50;;;;;;;;;;;;;;;;;;5068651;28;20050;-83
2023/12/13 09:36:17;;;;;;;;;;;;;;;;;;5062206;28;19929;-82
2023/12/13 09:38:43;;;;;;;;;;;;;;;;;;5060483;28;20381;-81
2023/12/13 09:41:10;;;;;;;;;;;;;;;;;;5051728;28;19932;-81
2023/12/13 09:43:36;;;;;;;;;;;;;;;;;;5064161;28;19975;-82
2023/12/13 09:46:05;;;;;;;;;;;;;;;;;;5059918;28;20282;-81
2023/12/13 09:48:31;;;;;;;;;;;;;;;;;;5059468;28;19925;-80
2023/12/13 09:51:00;;;;;;;;;;;;;;;;;;5068497;28;20324;-81
2023/12/13 09:53:27;;;;;;;;;;;;;;;;;;5069850;28;20343;-81
2023/12/13 09:55:54;;;;;;;;;;;;;;;;;;5065886;28;19924;-82
2023/12/13 09:58:21;;;;;;;;;;;;;;;;;;5065949;28;20766;-82
2023/12/13 10:00:47;;;;;;;;;;;;;;;;;;5063496;28;20012;-81
2023/12/13 10:03:13;;;;;;;;;;;;;;;;;;5070466;28;19986;-82
2023/12/13 10:05:40;;;;;;;;;;;;;;;;;;5067749;28;19958;-82
2023/12/13 10:08:07;;;;;;;;;;;;;;;;;;5069959;28;19924;-81
2023/12/13 10:10:35;;;;;;;;;;;;;;;;;;5073087;28;19963;-80
2023/12/13 10:27:12;;;;;;;;;;;;;;;;;;5067956;28;20277;-80
2023/12/13 10:29:39;;;;;;;;;;;;;;;;;;5065681;28;19928;-80
2023/12/13 10:32:05;;;;;;;;;;;;;;;;;;5051704;28;20364;-80
2023/12/13 10:34:31;;;;;;;;;;;;;;;;;;5071619;28;19925;-79
2023/12/13 10:36:58;;;;;;;;;;;;;;;;;;5067120;28;19968;-80
2023/12/13 10:39:25;;;;;;;;;;;;;;;;;;5066011;28;19978;-81
2023/12/13 10:41:51;;;;;;;;;;;;;;;;;;5069862;28;20026;-81
2023/12/13 10:44:18;;;;;;;;;;;;;;;;;;5072049;28;19939;-80
2023/12/13 10:46:47;;;;;;;;;;;;;;;;;;5062884;28;19972;-80
2023/12/13 10:49:14;;;;;;;;;;;;;;;;;;5059707;28;20362;-81
2023/12/13 10:51:40;;;;;;;;;;;;;;;;;;5068302;28;19924;-79
2023/12/13 10:54:07;;;;;;;;;;;;;;;;;;5063515;28;19925;-81
2023/12/13 10:56:33;;;;;;;;;;;;;;;;;;5062865;28;19924;-79
2023/12/13 10:59:03;;;;;;;;;;;;;;;;;;5063279;28;19991;-77
2023/12/13 11:01:30;;;;;;;;;;;;;;;;;;5071102;28;19929;-80
2023/12/13 11:03:57;;;;;;;;;;;;;;;;;;5071512;28;20289;-80
2023/12/13 11:06:23;;;;;;;;;;;;;;;;;;5070072;28;19924;-80
2023/12/13 11:08:50;;;;;;;;;;;;;;;;;;5062086;28;19932;-80
2023/12/13 11:11:16;;;;;;;;;;;;;;;;;;5066293;28;19924;-80
2023/12/13 11:13:43;;;;;;;;;;;;;;;;;;5065073;28;19933;-80
2023/12/13 11:16:09;;;;;;;;;;;;;;;;;;5070070;28;19968;-80
2023/12/13 11:18:36;;;;;;;;;;;;;;;;;;5070825;28;19924;-81
2023/12/13 11:21:02;;;;;;;;;;;;;;;;;;5065927;28;19967;-80
2023/12/13 11:23:30;;;;;;;;;;;;;;;;;;5049360;28;19924;-80
2023/12/13 11:25:56;;;;;;;;;;;;;;;;;;5066126;28;19978;-80
2023/12/13 11:28:22;;;;;;;;;;;;;;;;;;5069024;28;20058;-79
2023/12/13 11:30:50;;;;;;;;;;;;;;;;;;5065689;28;19931;-80
2023/12/13 11:33:20;;;;;;;;;;;;;;;;;;5052198;28;19971;-80
2023/12/13 11:35:48;;;;;;;;;;;;;;;;;;5068174;28;19999;-80
2023/12/13 11:38:14;;;;;;;;;;;;;;;;;;5061441;28;19994;-79
2023/12/13 11:40:41;;;;;;;;;;;;;;;;;;5049634;28;19928;-80
2023/12/13 11:43:08;;;;;;;;;;;;;;;;;;5064888;28;19931;-80
2023/12/13 11:45:35;;;;;;;;;;;;;;;;;;5053423;28;20373;-80
2023/12/13 11:48:01;;;;;;;;;;;;;;;;;;5060865;28;19947;-79
2023/12/13 11:50:28;;;;;;;;;;;;;;;;;;5054982;28;20321;-80
2023/12/13 11:52:55;;;;;;;;;;;;;;;;;;5053831;28;19936;-81
2023/12/13 11:55:22;;;;;;;;;;;;;;;;;;5065836;28;19948;-80
2023/12/13 11:57:50;;;;;;;;;;;;;;;;;;5062060;28;19932;-80
2023/12/13 12:00:16;;;;;;;;;;;;;;;;;;5067920;28;19924;-79
2023/12/13 12:02:42;;;;;;;;;;;;;;;;;;5054967;28;19974;-80
2023/12/13 12:05:09;;;;;;;;;;;;;;;;;;5046774;28;19974;-80
2023/12/13 12:07:36;;;;;;;;;;;;;;;;;;5068071;28;19979;-81
2023/12/13 12:10:03;;;;;;;;;;;;;;;;;;5062819;28;19932;-79
2023/12/13 12:12:30;;;;;;;;;;;;;;;;;;5071198;28;19936;-80
2023/12/13 12:14:57;;;;;;;;;;;;;;;;;;5062913;28;19932;-80
2023/12/13 12:17:25;;;;;;;;;;;;;;;;;;5055379;28;19928;-81
2023/12/13 12:19:52;;;;;;;;;;;;;;;;;;5052297;28;20003;-80
2023/12/13 12:22:20;;;;;;;;;;;;;;;;;;5064119;28;20301;-80
2023/12/13 12:24:47;;;;;;;;;;;;;;;;;;5069114;28;19929;-81
2023/12/13 12:27:14;;;;;;;;;;;;;;;;;;5062384;28;20377;-81
2023/12/13 12:29:40;;;;;;;;;;;;;;;;;;5057446;28;20389;-81
2023/12/13 12:32:11;;;;;;;;;;;;;;;;;;5057597;28;19925;-81
2023/12/13 12:34:41;;;;;;;;;;;;;;;;;;5066515;28;19968;-81
2023/12/13 12:37:07;;;;;;;;;;;;;;;;;;5069694;28;20019;-80
2023/12/13 12:39:36;;;;;;;;;;;;;;;;;;5063280;28;19929;-80
2023/12/13 12:42:03;;;;;;;;;;;;;;;;;;5063832;28;19954;-80
2023/12/13 12:44:31;;;;;;;;;;;;;;;;;;5063078;28;19925;-79
2023/12/13 12:46:58;;;;;;;;;;;;;;;;;;5059516;28;19925;-81
2023/12/13 12:49:26;;;;;;;;;;;;;;;;;;5065141;28;19960;-81
2023/12/13 12:51:53;;;;;;;;;;;;;;;;;;5060841;28;19978;-81
2023/12/13 12:54:20;;;;;;;;;;;;;;;;;;5070127;28;19924;-81
2023/12/13 12:56:46;;;;;;;;;;;;;;;;;;5062388;28;19925;-80
2023/12/13 12:59:14;;;;;;;;;;;;;;;;;;5062098;28;19925;-81
2023/12/13 13:01:41;;;;;;;;;;;;;;;;;;5066088;28;19925;-80
2023/12/13 13:04:13;;;;;;;;;;;;;;;;;;5059421;28;19924;-80
2023/12/13 13:06:39;;;;;;;;;;;;;;;;;;5060314;28;20376;-81
2023/12/13 13:09:07;;;;;;;;;;;;;;;;;;5062690;28;20028;-81
2023/12/13 13:11:36;;;;;;;;;;;;;;;;;;5068365;28;19932;-80
2023/12/13 13:14:04;;;;;;;;;;;;;;;;;;5062793;28;19971;-82
2023/12/13 13:16:39;;;;;;;;;;;;;;;;;;5065529;28;20317;-81
2023/12/13 13:19:11;;;;;;;;;;;;;;;;;;5061120;28;20390;-80
2023/12/13 13:21:39;;;;;;;;;;;;;;;;;;5060440;28;19932;-81
2023/12/13 13:24:08;;;;;;;;;;;;;;;;;;5065415;28;20019;-80
2023/12/13 13:26:36;;;;;;;;;;;;;;;;;;5070129;28;19936;-81
2023/12/13 13:29:05;;;;;;;;;;;;;;;;;;5072210;28;19928;-81
2023/12/13 13:31:32;;;;;;;;;;;;;;;;;;5068124;28;19924;-80
2023/12/13 13:33:59;;;;;;;;;;;;;;;;;;5068396;28;19924;-81
2023/12/13 13:36:26;;;;;;;;;;;;;;;;;;5069990;28;19948;-80
2023/12/13 13:38:53;;;;;;;;;;;;;;;;;;5071904;28;19925;-80
2023/12/13 13:41:22;;;;;;;;;;;;;;;;;;5055993;28;19924;-81
2023/12/13 13:43:48;;;;;;;;;;;;;;;;;;5067126;28;19924;-81
2023/12/13 13:46:16;;;;;;;;;;;;;;;;;;5078184;28;20014;-81
2023/12/13 13:48:45;;;;;;;;;;;;;;;;;;5051912;28;19924;-81
2023/12/13 13:51:13;;;;;;;;;;;;;;;;;;5062251;28;20016;-81
2023/12/13 13:53:40;;;;;;;;;;;;;;;;;;5062965;28;19925;-82
2023/12/13 13:56:08;;;;;;;;;;;;;;;;;;5055850;28;19932;-80
2023/12/13 13:58:35;;;;;;;;;;;;;;;;;;5067193;28;19931;-82
2023/12/13 14:01:02;;;;;;;;;;;;;;;;;;5058119;28;19924;-81
2023/12/13 14:03:29;;;;;;;;;;;;;;;;;;5067946;28;19925;-86
2023/12/13 14:05:58;;;;;;;;;;;;;;;;;;5065608;28;19950;-84
2023/12/13 14:08:25;;;;;;;;;;;;;;;;;;5055182;28;19971;-89
2023/12/13 14:10:52;;;;;;;;;;;;;;;;;;5070586;28;19928;-85
2023/12/13 14:13:19;;;;;;;;;;;;;;;;;;5048854;28;19924;-86
2023/12/13 14:15:48;;;;;;;;;;;;;;;;;;5068245;28;20445;-84
2023/12/13 14:18:16;;;;;;;;;;;;;;;;;;5065606;28;19931;-86
2023/12/13 14:20:44;;;;;;;;;;;;;;;;;;5069690;28;19924;-86
2023/12/13 14:23:11;;;;;;;;;;;;;;;;;;5072890;28;19924;-85
2023/12/13 14:25:37;;;;;;;;;;;;;;;;;;5065947;28;20357;-84
2023/12/13 14:28:07;;;;;;;;;;;;;;;;;;5050232;28;20292;-84
2023/12/13 14:30:37;;;;;;;;;;;;;;;;;;5061348;28;19936;-81
2023/12/13 14:33:04;;;;;;;;;;;;;;;;;;5068731;28;19982;-84
2023/12/13 14:35:31;;;;;;;;;;;;;;;;;;5071719;28;19925;-83
2023/12/13 14:38:03;;;;;;;;;;;;;;;;;;5071109;28;19928;-85
2023/12/13 14:40:32;;;;;;;;;;;;;;;;;;5058529;28;19929;-84
2023/12/13 14:42:59;;;;;;;;;;;;;;;;;;5068168;28;20465;-85
2023/12/13 14:45:34;;;;;;;;;;;;;;;;;;5056109;28;19924;-81
2023/12/13 14:48:04;;;;;;;;;;;;;;;;;;5065999;28;20274;-81
2023/12/13 14:50:31;;;;;;;;;;;;;;;;;;5060702;28;20390;-83
2023/12/13 14:52:58;;;;;;;;;;;;;;;;;;5071729;28;20053;-81
2023/12/13 14:55:24;;;;;;;;;;;;;;;;;;5055399;28;19926;-80
2023/12/13 14:57:52;;;;;;;;;;;;;;;;;;5061905;28;19960;-84
2023/12/13 15:00:25;;;;;;;;;;;;;;;;;;5062273;28;20328;-84
2023/12/13 15:02:51;;;;;;;;;;;;;;;;;;5069413;28;20373;-84
2023/12/13 15:05:18;;;;;;;;;;;;;;;;;;5052125;28;19925;-80
2023/12/13 15:07:46;;;;;;;;;;;;;;;;;;5072989;28;19940;-81
2023/12/13 15:10:13;;;;;;;;;;;;;;;;;;5062377;28;19947;-82
2023/12/13 15:12:40;;;;;;;;;;;;;;;;;;5067296;28;20024;-82
2023/12/13 15:15:06;;;;;;;;;;;;;;;;;;5064046;28;19928;-81
2023/12/13 15:17:33;;;;;;;;;;;;;;;;;;5054638;28;19924;-81
2023/12/13 15:20:00;;;;;;;;;;;;;;;;;;5051369;28;19948;-81
2023/12/13 15:22:26;;;;;;;;;;;;;;;;;;5053167;28;20445;-82
2023/12/13 15:24:53;;;;;;;;;;;;;;;;;;5054037;28;19924;-81
2023/12/13 15:27:20;;;;;;;;;;;;;;;;;;5064245;28;19925;-82
2023/12/13 15:29:46;;;;;;;;;;;;;;;;;;5051192;28;19929;-81
2023/12/13 15:32:13;;;;;;;;;;;;;;;;;;5064941;28;19947;-79
2023/12/13 15:34:40;;;;;;;;;;;;;;;;;;5070682;28;19925;-82
2023/12/13 15:37:06;;;;;;;;;;;;;;;;;;5066177;28;20378;-80
2023/12/13 15:39:33;;;;;;;;;;;;;;;;;;5053422;28;19990;-81
2023/12/13 15:42:00;;;;;;;;;;;;;;;;;;5064325;28;19982;-81
2023/12/13 15:44:27;;;;;;;;;;;;;;;;;;5054977;28;19933;-81
2023/12/13 15:46:53;;;;;;;;;;;;;;;;;;5053553;28;19964;-81
2023/12/13 15:49:20;;;;;;;;;;;;;;;;;;5052188;28;19936;-81
2023/12/13 15:51:50;;;;;;;;;;;;;;;;;;5065410;28;20024;-81
2023/12/13 15:54:18;;;;;;;;;;;;;;;;;;5056304;28;19929;-80
2023/12/13 15:56:44;;;;;;;;;;;;;;;;;;5062237;28;19944;-81
2023/12/13 15:59:11;;;;;;;;;;;;;;;;;;5050833;28;20006;-81
2023/12/13 16:01:37;;;;;;;;;;;;;;;;;;5070106;28;19928;-81
2023/12/13 16:04:04;;;;;;;;;;;;;;;;;;5050513;28;19924;-81
2023/12/13 16:06:31;;;;;;;;;;;;;;;;;;5062715;28;19928;-81
2023/12/13 16:08:58;;;;;;;;;;;;;;;;;;5055808;28;19928;-81
2023/12/13 16:11:25;;;;;;;;;;;;;;;;;;5047291;28;19931;-82
2023/12/13 16:13:52;;;;;;;;;;;;;;;;;;5066712;28;20339;-82
2023/12/13 16:16:18;;;;;;;;;;;;;;;;;;5070552;28;19946;-82
2023/12/13 16:18:45;;;;;;;;;;;;;;;;;;5048591;28;19929;-82
2023/12/13 16:21:15;;;;;;;;;;;;;;;;;;5055921;28;19932;-82
2023/12/13 16:23:42;;;;;;;;;;;;;;;;;;5061221;28;19931;-81
2023/12/13 16:26:08;;;;;;;;;;;;;;;;;;5066345;28;19956;-82
2023/12/13 16:28:35;;;;;;;;;;;;;;;;;;5070109;28;19932;-82
2023/12/13 16:31:02;;;;;;;;;;;;;;;;;;5063344;28;19964;-82
2023/12/13 16:33:31;;;;;;;;;;;;;;;;;;5064480;28;19932;-81
2023/12/13 16:35:58;;;;;;;;;;;;;;;;;;5048787;28;19932;-81
2023/12/13 16:38:25;;;;;;;;;;;;;;;;;;5064045;28;19924;-82
2023/12/13 16:40:51;;;;;;;;;;;;;;;;;;5072446;28;19929;-82
2023/12/13 16:43:18;;;;;;;;;;;;;;;;;;5064455;28;20281;-82
2023/12/13 16:45:47;;;;;;;;;;;;;;;;;;5070827;28;19932;-83
2023/12/13 16:48:13;;;;;;;;;;;;;;;;;;5049297;28;19925;-82
2023/12/13 16:50:40;;;;;;;;;;;;;;;;;;5063493;28;20340;-82
2023/12/13 16:53:08;;;;;;;;;;;;;;;;;;5068755;28;19951;-82
2023/12/13 16:55:34;;;;;;;;;;;;;;;;;;5063131;28;19924;-81
2023/12/13 16:58:01;;;;;;;;;;;;;;;;;;5049656;28;19970;-81